Time;durP1;ratioP1;P1;durP2;ratioP2;P2;SDS_P1;SDS_P2;PMS_P1;PMS_P2;Temp;Humidity;BMP_temperature;BMP_pressure;BME280_temperature;BME280_humidity;BME280_pressure;Samples;Min_cycle;Max_cycle;Signal;HPM_P1;HPM_P2
2022/01/03 00:01:27;;;;;;;20.17;5.15;;;;;;;9.22;78.89;101101.91;5073458;28;20028;-71
2022/01/03 00:03:52;;;;;;;23.10;4.95;;;;;;;9.18;79.10;101106.28;5038995;28;20048;-70
2022/01/03 00:06:21;;;;;;;27.50;4.60;;;;;;;9.15;79.08;101114.16;5053269;28;20033;-70
2022/01/03 00:08:47;;;;;;;19.67;4.78;;;;;;;9.12;79.33;101102.81;5037701;28;20041;-74
2022/01/03 00:11:18;;;;;;;25.38;5.05;;;;;;;9.09;79.56;101111.53;5053673;28;20021;-71
2022/01/03 00:13:46;;;;;;;21.85;4.55;;;;;;;9.05;79.30;101116.75;5071197;28;20127;-72
2022/01/03 00:16:13;;;;;;;20.63;5.45;;;;;;;9.04;79.57;101115.00;5074140;28;20029;-69
2022/01/03 00:18:39;;;;;;;20.20;5.68;;;;;;;9.01;79.56;101101.09;5073304;28;20551;-70
2022/01/03 00:21:12;;;;;;;24.20;5.28;;;;;;;9.04;79.32;101109.78;5056814;28;20127;-72
2022/01/03 00:23:40;;;;;;;24.98;5.38;;;;;;;9.02;79.26;101113.28;5089307;28;20027;-71
2022/01/03 00:26:08;;;;;;;18.00;4.97;;;;;;;9.02;79.70;101122.84;5076803;28;20504;-72
2022/01/03 00:28:36;;;;;;;23.38;5.28;;;;;;;9.01;79.20;101119.38;5083152;28;20051;-73
2022/01/03 00:31:03;;;;;;;14.77;4.25;;;;;;;8.98;79.33;101127.22;5074984;28;20052;-73
2022/01/03 00:33:30;;;;;;;22.35;4.50;;;;;;;8.97;79.17;101124.63;5042615;28;20037;-73
2022/01/03 00:36:02;;;;;;;21.42;5.72;;;;;;;8.95;79.13;101122.00;5053232;28;20155;-73
2022/01/03 00:38:30;;;;;;;16.27;4.53;;;;;;;8.94;79.49;101125.50;5053362;28;20029;-75
2022/01/03 00:40:57;;;;;;;16.92;4.13;;;;;;;8.95;79.12;101116.78;5053136;28;20495;-73
2022/01/03 00:43:24;;;;;;;14.38;5.05;;;;;;;8.97;78.92;101128.09;5053544;28;20033;-72
2022/01/03 00:45:52;;;;;;;16.23;4.28;;;;;;;8.98;79.08;101119.38;5054569;28;20025;-73
2022/01/03 00:48:18;;;;;;;25.38;4.32;;;;;;;8.97;78.89;101125.47;5056915;28;20055;-73
2022/01/03 00:50:43;;;;;;;29.38;5.88;;;;;;;9.00;78.48;101120.25;5038808;28;20547;-72
2022/01/03 00:53:08;;;;;;;21.17;5.95;;;;;;;9.00;78.55;101125.47;5040207;28;20033;-72
2022/01/03 00:55:34;;;;;;;22.27;5.35;;;;;;;9.02;78.25;101131.59;5039519;28;20040;-74
2022/01/03 00:58:06;;;;;;;21.88;5.53;;;;;;;9.03;78.21;101124.59;5056626;28;20127;-73
2022/01/03 01:00:36;;;;;;;29.13;6.43;;;;;;;9.01;78.57;101142.03;5072580;28;20395;-74
2022/01/03 01:03:18;;;;;;;26.75;5.60;;;;;;;9.02;78.03;101138.53;5057290;28;20029;-72
2022/01/03 01:05:47;;;;;;;20.52;4.65;;;;;;;9.04;77.91;101125.47;5052222;28;20443;-73
2022/01/03 01:08:18;;;;;;;19.85;4.75;;;;;;;9.10;77.79;101121.13;5053028;28;20091;-73
2022/01/03 01:10:44;;;;;;;24.98;5.63;;;;;;;9.12;77.49;101121.09;5052105;28;20040;-72
2022/01/03 01:13:12;;;;;;;20.73;5.03;;;;;;;9.13;77.60;101117.63;5050566;28;20362;-72
2022/01/03 01:15:40;;;;;;;15.88;4.50;;;;;;;9.14;77.46;101128.09;5052091;28;20510;-72
2022/01/03 01:18:06;;;;;;;15.02;5.32;;;;;;;9.16;77.47;101133.31;5052689;28;20025;-73
2022/01/03 01:20:35;;;;;;;24.10;5.72;;;;;;;9.16;77.38;101135.94;5035087;28;20493;-74
2022/01/03 01:23:01;;;;;;;24.35;5.93;;;;;;;9.20;77.12;101153.34;5083362;28;20028;-74
2022/01/03 01:28:06;;;;;;;23.33;5.82;;;;;;;9.25;76.67;101141.16;5093438;28;20032;-74
2022/01/03 01:30:33;;;;;;;26.00;5.80;;;;;;;9.25;77.09;101151.63;5082781;28;20021;-74
2022/01/03 01:33:14;;;;;;;15.18;5.75;;;;;;;9.23;77.13;101147.25;5080031;28;20032;-71
2022/01/03 01:35:52;;;;;;;24.08;5.35;;;;;;;9.22;77.32;101145.50;5091748;28;20032;-74
2022/01/03 01:38:21;;;;;;;18.73;5.90;;;;;;;9.22;76.68;101151.59;5092827;28;20085;-72
2022/01/03 01:40:51;;;;;;;24.75;6.50;;;;;;;9.20;76.87;101158.59;5091837;28;20124;-72
2022/01/03 01:43:37;;;;;;;17.27;5.55;;;;;;;9.21;77.08;101154.22;5088947;28;20086;-74
2022/01/03 01:46:10;;;;;;;19.35;5.95;;;;;;;9.16;77.32;101154.22;5086198;28;20024;-72
2022/01/03 01:48:41;;;;;;;21.83;7.13;;;;;;;9.13;76.98;101141.16;5068373;28;20029;-74
2022/01/03 01:51:08;;;;;;;24.02;5.35;;;;;;;9.14;76.76;101158.59;5051829;28;20021;-72
2022/01/03 01:53:43;;;;;;;20.17;5.72;;;;;;;9.10;77.17;101149.00;5035473;28;20033;-74
2022/01/03 01:56:16;;;;;;;27.90;4.97;;;;;;;9.07;77.10;101151.63;5080391;28;20036;-71
2022/01/03 01:59:15;;;;;;;24.05;6.07;;;;;;;9.04;77.48;101151.59;5072048;28;20094;-75
2022/01/03 02:01:50;;;;;;;16.63;5.20;;;;;;;9.03;77.16;101153.34;5071844;28;20020;-73
2022/01/03 02:04:42;;;;;;;23.15;5.75;;;;;;;8.98;77.79;101148.16;5071768;28;20040;-73
2022/01/03 02:07:17;;;;;;;14.23;5.38;;;;;;;8.92;77.41;101148.16;5071837;28;20024;-73
2022/01/03 02:10:00;;;;;;;24.65;6.10;;;;;;;8.89;77.79;101149.88;5071264;28;20361;-73
2022/01/03 02:12:27;;;;;;;24.65;5.85;;;;;;;8.86;78.00;101152.50;5087221;28;20371;-72
2022/01/03 02:14:57;;;;;;;23.52;6.68;;;;;;;8.80;78.12;101158.59;5091741;28;20167;-73
2022/01/03 02:17:25;;;;;;;23.05;5.55;;;;;;;8.75;78.49;101158.59;5092077;28;20472;-73
2022/01/03 02:20:07;;;;;;;27.00;6.15;;;;;;;8.73;78.58;101151.63;5074870;28;20032;-72
2022/01/03 02:22:33;;;;;;;30.48;6.35;;;;;;;8.70;78.76;101151.63;5072181;28;20067;-73
2022/01/03 02:24:58;;;;;;;22.88;5.40;;;;;;;8.66;78.86;101150.72;5054488;28;20032;-73
2022/01/03 02:27:24;;;;;;;28.58;6.22;;;;;;;8.63;79.28;101149.00;5055029;28;20199;-73
2022/01/03 02:29:50;;;;;;;21.77;5.07;;;;;;;8.60;79.27;101151.59;5070380;28;20488;-72
2022/01/03 02:32:15;;;;;;;29.20;6.00;;;;;;;8.58;78.88;101147.25;5056357;28;20045;-73
2022/01/03 02:34:44;;;;;;;27.33;4.97;;;;;;;8.53;79.34;101155.06;5034118;28;20098;-73
2022/01/03 02:37:09;;;;;;;35.00;6.22;;;;;;;8.50;79.20;101149.84;5052835;28;20043;-72
2022/01/03 02:39:35;;;;;;;10.85;4.20;;;;;;;8.47;79.50;101157.69;5070708;28;20020;-73
2022/01/03 02:42:00;;;;;;;22.73;5.85;;;;;;;8.45;79.57;101151.59;5056400;28;20036;-74
2022/01/03 02:44:26;;;;;;;34.50;6.00;;;;;;;8.43;79.62;101159.38;5034529;28;20499;-73
2022/01/03 02:46:52;;;;;;;37.67;6.40;;;;;;;8.39;79.77;101148.91;5034498;28;20051;-73
2022/01/03 02:49:18;;;;;;;26.00;4.88;;;;;;;8.35;79.63;101153.28;5034119;28;20037;-74
2022/01/03 02:51:45;;;;;;;16.73;3.72;;;;;;;8.35;80.23;101157.59;5037395;28;20024;-74
2022/01/03 02:54:11;;;;;;;20.00;4.78;;;;;;;8.35;80.12;101157.59;5070407;28;20093;-73
2022/01/03 02:56:42;;;;;;;12.93;4.45;;;;;;;8.34;80.06;101156.75;5037509;28;20052;-73
2022/01/03 02:59:13;;;;;;;23.40;5.68;;;;;;;8.35;80.23;101160.22;5054189;28;20035;-73
2022/01/03 03:01:43;;;;;;;16.77;5.32;;;;;;;8.36;80.29;101149.81;5070511;28;20032;-73
2022/01/03 03:04:08;;;;;;;25.75;5.25;;;;;;;8.36;80.40;101149.81;5053855;28;20404;-73
2022/01/03 03:06:34;;;;;;;20.38;5.72;;;;;;;8.34;80.25;101159.34;5037253;28;20028;-73
2022/01/03 03:09:04;;;;;;;18.63;6.05;;;;;;;8.33;80.26;101161.09;5036970;28;20392;-73
2022/01/03 03:11:31;;;;;;;21.58;5.88;;;;;;;8.33;80.50;101158.50;5051195;28;20419;-73
2022/01/03 03:13:57;;;;;;;16.67;4.85;;;;;;;8.31;80.35;101160.22;5033440;28;20562;-72
2022/01/03 03:16:22;;;;;;;17.20;5.20;;;;;;;8.32;80.37;101167.19;5034014;28;20029;-71
2022/01/03 03:18:50;;;;;;;20.73;5.20;;;;;;;8.32;80.45;101164.56;5033283;28;20124;-71
2022/01/03 03:21:16;;;;;;;17.80;5.00;;;;;;;8.30;80.17;101165.44;5051803;28;20112;-71
2022/01/03 03:23:41;;;;;;;26.08;5.25;;;;;;;8.30;80.24;101168.94;5073765;28;20480;-72
2022/01/03 03:26:09;;;;;;;27.92;6.15;;;;;;;8.30;80.80;101163.72;5060131;28;20064;-73
2022/01/03 03:28:34;;;;;;;25.30;6.38;;;;;;;8.26;80.64;101167.19;5050209;28;20021;-73
2022/01/03 03:31:00;;;;;;;19.88;5.50;;;;;;;8.26;80.24;101176.72;5057334;28;20097;-72
2022/01/03 03:33:29;;;;;;;21.77;5.88;;;;;;;8.23;80.89;101167.16;5090743;28;20024;-73
2022/01/03 03:35:55;;;;;;;26.25;5.38;;;;;;;8.26;81.22;101171.50;5073604;28;20127;-73
2022/01/03 03:38:25;;;;;;;23.05;4.80;;;;;;;8.30;80.46;101173.25;5090829;28;20024;-73
2022/01/03 03:40:55;;;;;;;34.05;5.78;;;;;;;8.32;80.79;101167.19;5046327;28;20052;-72
2022/01/03 03:43:20;;;;;;;14.32;4.53;;;;;;;8.40;80.66;101171.56;5070488;28;20427;-72
2022/01/03 03:45:48;;;;;;;30.48;6.53;;;;;;;8.40;80.36;101164.59;5069777;28;20481;-73
2022/01/03 03:48:14;;;;;;;24.17;5.13;;;;;;;8.45;80.49;101175.09;5070383;28;20036;-72
2022/01/03 03:50:40;;;;;;;27.02;5.70;;;;;;;8.45;80.38;101168.13;5059729;28;20042;-73
2022/01/03 03:53:06;;;;;;;17.63;4.65;;;;;;;8.45;80.56;101162.03;5090196;28;20020;-72
2022/01/03 03:55:32;;;;;;;20.98;5.45;;;;;;;8.49;80.64;101168.97;5086522;28;20028;-72
2022/01/03 03:57:58;;;;;;;26.27;5.55;;;;;;;8.47;80.54;101145.47;5053073;28;20090;-73
2022/01/03 04:00:24;;;;;;;25.33;5.05;;;;;;;8.47;80.39;101150.69;5057672;28;20118;-72
2022/01/03 04:02:50;;;;;;;20.15;4.97;;;;;;;8.51;80.11;101150.72;5090151;28;20032;-71
2022/01/03 04:05:18;;;;;;;22.05;5.80;;;;;;;8.52;80.51;101153.34;5073099;28;20028;-73
2022/01/03 04:07:43;;;;;;;21.50;6.50;;;;;;;8.49;80.27;101156.81;5072988;28;20056;-71
2022/01/03 04:10:11;;;;;;;24.95;5.40;;;;;;;8.48;80.83;101146.38;5073177;28;20071;-72
2022/01/03 04:12:37;;;;;;;32.65;6.00;;;;;;;8.47;80.64;101145.47;5073470;28;20039;-73
2022/01/03 04:15:04;;;;;;;15.35;4.32;;;;;;;8.48;80.71;101151.59;5072268;28;20063;-73
2022/01/03 04:17:30;;;;;;;20.70;4.82;;;;;;;8.49;80.78;101137.63;5057238;28;20489;-71
2022/01/03 04:19:55;;;;;;;17.92;5.03;;;;;;;8.50;80.43;101144.63;5032794;28;20033;-72
2022/01/03 04:22:21;;;;;;;36.25;6.15;;;;;;;8.51;80.37;101138.53;5016564;28;20036;-75
2022/01/03 04:24:46;;;;;;;29.27;6.32;;;;;;;8.55;80.13;101135.06;5016413;28;20029;-71
2022/01/03 04:27:12;;;;;;;30.55;5.55;;;;;;;8.53;80.01;101128.09;5017094;28;20481;-72
2022/01/03 04:29:37;;;;;;;20.80;4.97;;;;;;;8.55;80.14;101128.94;5033919;28;20043;-73
2022/01/03 04:32:05;;;;;;;25.73;5.18;;;;;;;8.51;79.95;101116.78;5033126;28;20029;-72
2022/01/03 04:34:31;;;;;;;29.45;5.57;;;;;;;8.51;80.11;101125.47;5049439;28;20139;-69
2022/01/03 04:36:56;;;;;;;30.52;6.13;;;;;;;8.48;80.18;101128.94;5049490;28;20111;-72
2022/01/03 04:39:22;;;;;;;34.58;7.10;;;;;;;8.48;80.16;101125.47;5065019;28;20057;-71
2022/01/03 04:41:47;;;;;;;19.95;5.35;;;;;;;8.51;80.39;101125.47;5056986;28;20469;-72
2022/01/03 04:44:13;;;;;;;26.60;5.50;;;;;;;8.51;80.56;101135.91;5053040;28;20446;-71
2022/01/03 04:46:38;;;;;;;21.98;5.82;;;;;;;8.49;80.28;101127.19;5069815;28;20028;-73
2022/01/03 04:49:06;;;;;;;26.40;6.22;;;;;;;8.53;80.55;101131.56;5052508;28;20442;-73
2022/01/03 04:51:32;;;;;;;24.58;6.40;;;;;;;8.57;80.19;101129.84;5053512;28;20037;-73
2022/01/03 04:53:57;;;;;;;23.75;5.18;;;;;;;8.61;79.81;101128.97;5055877;28;20503;-73
2022/01/03 04:56:23;;;;;;;26.70;5.43;;;;;;;8.64;79.99;101129.81;5073285;28;20123;-73
2022/01/03 04:58:48;;;;;;;22.55;5.05;;;;;;;8.63;80.50;101129.81;5039499;28;20033;-73
2022/01/03 05:01:16;;;;;;;30.30;6.00;;;;;;;8.64;80.03;101126.34;5081827;28;20383;-73
2022/01/03 05:03:42;;;;;;;36.50;6.40;;;;;;;8.64;79.66;101126.34;5045207;28;20040;-72
2022/01/03 05:06:07;;;;;;;31.88;5.50;;;;;;;8.67;79.65;101123.75;5045791;28;20024;-73
2022/01/03 05:08:33;;;;;;;18.73;5.57;;;;;;;8.62;79.96;101122.84;5072199;28;20373;-73
2022/01/03 05:11:00;;;;;;;33.53;5.93;;;;;;;8.60;80.08;101128.06;5064892;28;20084;-73
2022/01/03 05:13:27;;;;;;;27.73;4.47;;;;;;;8.58;80.10;101123.75;5048933;28;20617;-73
2022/01/03 05:15:53;;;;;;;20.33;4.22;;;;;;;8.58;80.02;101126.38;5057427;28;20032;-73
2022/01/03 05:18:18;;;;;;;24.02;6.20;;;;;;;8.59;80.25;101112.41;5036571;28;20354;-72
2022/01/03 05:20:44;;;;;;;17.83;5.75;;;;;;;8.61;79.70;101115.91;5034736;28;20021;-72
2022/01/03 05:23:09;;;;;;;21.98;5.78;;;;;;;8.61;79.68;101110.69;5057125;28;20035;-73
2022/01/03 05:25:35;;;;;;;23.40;5.85;;;;;;;8.60;80.19;101101.97;5060875;28;20036;-73
2022/01/03 05:28:00;;;;;;;29.73;5.70;;;;;;;8.60;80.01;101101.97;5035846;28;20037;-73
2022/01/03 05:30:26;;;;;;;28.85;5.45;;;;;;;8.63;80.13;101102.00;5035783;28;20083;-71
2022/01/03 05:32:51;;;;;;;26.52;5.32;;;;;;;8.63;79.97;101099.38;5018445;28;20040;-73
2022/01/03 05:35:17;;;;;;;21.13;5.35;;;;;;;8.60;80.49;101086.28;5019070;28;20036;-74
2022/01/03 05:37:42;;;;;;;19.98;5.57;;;;;;;8.59;80.46;101087.19;5019318;28;20036;-71
2022/01/03 05:40:08;;;;;;;27.80;5.68;;;;;;;8.58;80.21;101090.66;5053298;28;20028;-71
2022/01/03 05:42:34;;;;;;;28.25;5.75;;;;;;;8.58;80.06;101088.03;5092640;28;20032;-72
2022/01/03 05:44:59;;;;;;;19.55;5.55;;;;;;;8.61;79.90;101090.66;5075300;28;20544;-72
2022/01/03 05:47:25;;;;;;;25.90;5.05;;;;;;;8.61;80.11;101095.88;5053308;28;20116;-72
2022/01/03 05:49:52;;;;;;;23.75;4.82;;;;;;;8.60;80.41;101091.50;5052156;28;20032;-72
2022/01/03 05:52:18;;;;;;;22.27;4.43;;;;;;;8.59;80.50;101095.00;5019322;28;20025;-73
2022/01/03 05:54:43;;;;;;;25.15;5.97;;;;;;;8.61;80.22;101081.94;5035112;28;20504;-73
2022/01/03 05:57:09;;;;;;;25.75;6.00;;;;;;;8.57;80.03;101088.91;5038249;28;20059;-73
2022/01/03 05:59:34;;;;;;;26.70;5.75;;;;;;;8.56;80.25;101081.97;5057556;28;20097;-73
2022/01/03 06:02:00;;;;;;;27.08;6.28;;;;;;;8.56;80.70;101076.72;5075282;28;20468;-73
2022/01/03 06:04:38;;;;;;;18.90;4.95;;;;;;;8.59;79.97;101078.44;5057272;28;20080;-72
2022/01/03 06:07:07;;;;;;;19.92;5.05;;;;;;;8.62;80.44;101081.94;5076551;28;20027;-72
2022/01/03 06:09:33;;;;;;;25.60;4.25;;;;;;;8.64;80.18;101082.81;5069928;28;20055;-73
2022/01/03 06:11:58;;;;;;;26.63;4.63;;;;;;;8.69;79.76;101084.56;5051715;28;20052;-71
2022/01/03 06:14:27;;;;;;;18.92;5.15;;;;;;;8.67;80.22;101087.16;5045960;28;20037;-72
2022/01/03 06:16:53;;;;;;;26.90;4.43;;;;;;;8.69;79.94;101088.03;5035188;28;20029;-72
2022/01/03 06:19:19;;;;;;;14.75;4.35;;;;;;;8.70;79.98;101088.91;5035338;28;20090;-72
2022/01/03 06:21:45;;;;;;;21.13;5.35;;;;;;;8.72;79.78;101081.94;5040751;28;20064;-72
2022/01/03 06:24:13;;;;;;;17.55;4.35;;;;;;;8.72;79.57;101080.22;5066875;28;20083;-72
2022/01/03 06:26:41;;;;;;;26.92;4.90;;;;;;;8.74;79.83;101085.44;5053505;28;20029;-72
2022/01/03 06:29:09;;;;;;;23.80;5.13;;;;;;;8.75;80.21;101087.16;5046901;28;20048;-72
2022/01/03 06:31:35;;;;;;;22.35;5.18;;;;;;;8.74;80.04;101075.84;5044068;28;20037;-74
2022/01/03 06:34:00;;;;;;;21.58;5.03;;;;;;;8.72;80.16;101079.31;5066265;28;20032;-71
2022/01/03 06:36:26;;;;;;;25.48;5.18;;;;;;;8.70;80.09;101088.91;5034450;28;20544;-72
2022/01/03 06:38:52;;;;;;;18.27;4.32;;;;;;;8.65;79.98;101068.88;5054159;28;20037;-71
2022/01/03 06:41:18;;;;;;;19.40;4.78;;;;;;;8.60;80.44;101068.00;5037856;28;20048;-71
2022/01/03 06:43:46;;;;;;;27.60;4.43;;;;;;;8.56;80.54;101071.50;5051094;28;20477;-73
2022/01/03 06:46:12;;;;;;;25.83;3.60;;;;;;;8.51;80.65;101064.53;5055849;28;20032;-72
2022/01/03 06:48:39;;;;;;;22.27;4.90;;;;;;;8.46;80.81;101061.91;5071920;28;20332;-74
2022/01/03 06:51:05;;;;;;;19.60;4.15;;;;;;;8.43;80.96;101062.75;5067454;28;20024;-73
2022/01/03 06:53:31;;;;;;;20.25;5.00;;;;;;;8.43;81.09;101067.09;5070807;28;20036;-73
2022/01/03 06:55:58;;;;;;;17.48;5.35;;;;;;;8.44;81.45;101067.13;5070455;28;20563;-73
2022/01/03 06:58:24;;;;;;;16.98;4.25;;;;;;;8.45;81.53;101065.41;5068695;28;20412;-71
2022/01/03 07:00:49;;;;;;;17.52;4.82;;;;;;;8.44;81.39;101061.00;5070968;28;20027;-72
2022/01/03 07:03:15;;;;;;;23.75;4.82;;;;;;;8.41;81.71;101069.72;5054268;28;20189;-73
2022/01/03 07:05:40;;;;;;;21.55;5.20;;;;;;;8.36;81.92;101073.19;5037258;28;20461;-72
2022/01/03 07:08:07;;;;;;;14.98;3.22;;;;;;;8.34;82.39;101065.34;5055763;28;20513;-73
2022/01/03 07:10:32;;;;;;;13.57;3.47;;;;;;;8.31;82.87;101066.22;5090723;28;20590;-73
2022/01/03 07:13:00;;;;;;;17.52;3.70;;;;;;;8.31;82.89;101066.22;5046268;28;20124;-71
2022/01/03 07:20:54;;;;;;;16.50;3.90;;;;;;;8.30;83.95;101058.38;5088070;28;20046;-73
2022/01/03 07:23:22;;;;;;;20.73;5.15;;;;;;;8.30;83.44;101054.03;5083600;28;20036;-72
2022/01/03 07:25:48;;;;;;;30.23;4.85;;;;;;;8.30;83.84;101059.28;5049939;28;20029;-72
2022/01/03 07:28:14;;;;;;;18.23;4.50;;;;;;;8.33;83.55;101056.66;5046500;28;20090;-72
2022/01/03 07:30:40;;;;;;;17.10;3.53;;;;;;;8.33;83.40;101064.50;5056759;28;20034;-73
2022/01/03 07:33:06;;;;;;;19.02;4.18;;;;;;;8.33;83.34;101063.59;5070180;28;20024;-72
2022/01/03 07:35:31;;;;;;;17.27;3.60;;;;;;;8.32;83.59;101067.97;5069803;28;20036;-72
2022/01/03 07:37:58;;;;;;;24.05;5.00;;;;;;;8.31;83.27;101067.97;5053668;28;20029;-72
2022/01/03 07:40:25;;;;;;;16.55;4.15;;;;;;;8.26;83.59;101054.91;5069613;28;20035;-73
2022/01/03 07:42:50;;;;;;;14.48;4.13;;;;;;;8.25;83.11;101062.75;5050251;28;20644;-72
2022/01/03 07:45:19;;;;;;;21.75;4.60;;;;;;;8.19;83.53;101054.88;5030264;28;20116;-72
2022/01/03 07:47:44;;;;;;;13.60;3.83;;;;;;;8.13;83.35;101060.94;5065555;28;20036;-72
2022/01/03 07:50:11;;;;;;;22.92;4.47;;;;;;;8.11;83.21;101062.72;5022166;28;20039;-72
2022/01/03 07:52:37;;;;;;;17.75;4.57;;;;;;;8.12;83.45;101065.31;5070097;28;20106;-73
2022/01/03 07:55:05;;;;;;;22.70;4.75;;;;;;;8.10;83.25;101067.06;5068243;28;20114;-73
2022/01/03 07:57:30;;;;;;;19.85;4.18;;;;;;;8.09;83.24;101073.16;5067939;28;20048;-72
2022/01/03 07:59:56;;;;;;;18.67;5.43;;;;;;;8.10;83.68;101076.63;5069847;28;20024;-72
2022/01/03 08:02:22;;;;;;;11.85;4.53;;;;;;;8.11;82.86;101078.38;5069919;28;20542;-72
2022/01/03 08:04:47;;;;;;;24.83;4.72;;;;;;;8.14;83.11;101081.84;5040948;28;20131;-71
2022/01/03 08:07:12;;;;;;;16.85;4.07;;;;;;;8.18;83.20;101084.47;5074038;28;20426;-72
2022/01/03 08:09:39;;;;;;;20.13;4.38;;;;;;;8.21;83.31;101077.50;5068570;28;20020;-72
2022/01/03 08:12:05;;;;;;;17.95;5.00;;;;;;;8.25;82.96;101076.66;5036365;28;20028;-72
2022/01/03 08:14:31;;;;;;;22.67;4.65;;;;;;;8.28;83.14;101055.75;5060661;28;20087;-72
2022/01/03 08:16:57;;;;;;;17.52;4.15;;;;;;;8.30;82.84;101068.81;5042260;28;20034;-72
2022/01/03 08:19:25;;;;;;;17.30;3.95;;;;;;;8.34;83.19;101067.97;5073630;28;20036;-72
2022/01/03 08:21:51;;;;;;;17.63;4.85;;;;;;;8.33;82.27;101072.31;5053441;28;20063;-72
2022/01/03 08:24:17;;;;;;;22.40;4.15;;;;;;;8.33;82.39;101074.94;5045727;28;20059;-72
2022/01/03 08:26:43;;;;;;;18.77;4.28;;;;;;;8.37;82.47;101080.16;5070929;28;20020;-72
2022/01/03 08:29:09;;;;;;;22.15;4.47;;;;;;;8.40;82.32;101072.31;5040114;28;20024;-72
2022/01/03 08:31:37;;;;;;;26.77;5.13;;;;;;;8.42;81.89;101079.28;5072689;28;20108;-72
2022/01/03 08:34:05;;;;;;;21.73;4.75;;;;;;;8.44;82.28;101084.50;5047715;28;20458;-72
2022/01/03 08:36:32;;;;;;;19.73;4.85;;;;;;;8.45;81.61;101084.53;5085159;28;20028;-73
2022/01/03 08:38:58;;;;;;;22.92;4.45;;;;;;;8.50;82.24;101066.25;5079453;28;20043;-72
2022/01/03 08:41:23;;;;;;;26.42;5.60;;;;;;;8.55;81.80;101069.75;5072953;28;20021;-72
2022/01/03 08:43:51;;;;;;;25.15;5.22;;;;;;;8.59;81.74;101071.50;5053489;28;20040;-72
2022/01/03 08:46:16;;;;;;;18.10;4.40;;;;;;;8.66;81.61;101070.63;5061268;28;20078;-72
2022/01/03 08:48:42;;;;;;;18.75;4.15;;;;;;;8.73;81.38;101065.41;5054954;28;20493;-72
2022/01/03 08:51:09;;;;;;;16.85;5.45;;;;;;;8.79;81.41;101073.22;5035978;28;20043;-72
2022/01/03 08:53:36;;;;;;;22.10;4.82;;;;;;;8.86;81.17;101069.72;5051116;28;20025;-72
2022/01/03 08:56:02;;;;;;;15.77;4.25;;;;;;;8.92;80.86;101087.16;5072505;28;20525;-72
2022/01/03 08:58:28;;;;;;;27.42;4.93;;;;;;;8.96;80.85;101088.88;5072358;28;20056;-72
2022/01/03 09:00:56;;;;;;;19.48;5.03;;;;;;;8.98;80.45;101088.03;5072197;28;20036;-72
2022/01/03 09:03:22;;;;;;;20.23;5.10;;;;;;;9.02;80.92;101096.72;5052784;28;20072;-72
2022/01/03 09:05:53;;;;;;;21.30;4.60;;;;;;;9.03;80.43;101098.47;5070797;28;20030;-72
2022/01/03 09:08:21;;;;;;;19.38;3.83;;;;;;;9.05;80.28;101101.06;5067726;28;20473;-72
2022/01/03 09:10:48;;;;;;;12.75;3.53;;;;;;;9.07;80.30;101100.22;5065197;28;20039;-72
2022/01/03 09:13:13;;;;;;;20.25;4.25;;;;;;;9.17;79.81;101099.31;5069246;28;20028;-72
2022/01/03 09:15:44;;;;;;;15.23;4.55;;;;;;;9.39;79.73;101096.66;5037483;28;20114;-73
2022/01/03 09:18:10;;;;;;;;;;;;;;;9.58;80.42;101086.97;5047503;28;20434;-73
2022/01/03 09:20:35;;;;;;;18.75;4.50;;;;;;;9.84;79.07;101079.03;5068757;28;19937;-72
2022/01/03 09:23:09;;;;;;;23.92;4.35;;;;;;;9.96;78.56;101061.53;5062015;28;20032;-73
2022/01/03 09:30:52;;;;;;;15.63;4.60;;;;;;;9.79;76.99;101057.25;5070709;28;20560;-72
2022/01/03 09:33:18;;;;;;;17.98;4.03;;;;;;;9.78;77.38;101055.50;5069668;28;20115;-72
2022/01/03 09:35:44;;;;;;;24.23;4.43;;;;;;;9.81;77.30;101060.75;5045887;28;20136;-72
2022/01/03 09:38:10;;;;;;;20.42;4.82;;;;;;;9.92;76.84;101047.59;5067590;28;20036;-70
2022/01/03 09:40:39;;;;;;;20.20;4.50;;;;;;;9.95;76.18;101046.69;5081230;28;20032;-71
2022/01/03 09:43:08;;;;;;;17.00;4.72;;;;;;;9.87;76.52;101050.22;5074820;28;20024;-73
2022/01/03 09:45:33;;;;;;;32.10;6.05;;;;;;;9.81;76.77;101036.31;5061514;28;20025;-72
2022/01/03 09:48:02;;;;;;;27.85;11.93;;;;;;;9.79;76.75;101045.91;5076221;28;20038;-71
2022/01/03 09:50:31;;;;;;;29.08;10.98;;;;;;;9.78;76.84;101038.94;5079770;28;20039;-73
2022/01/03 09:52:57;;;;;;;28.70;9.85;;;;;;;9.85;76.51;101044.13;5072386;28;20032;-72
2022/01/03 09:55:24;;;;;;;25.40;9.15;;;;;;;10.15;76.92;101047.44;5055889;28;20032;-72
2022/01/03 09:57:50;;;;;;;24.33;7.35;;;;;;;10.69;75.42;101048.81;5071809;28;20053;-72
2022/01/03 10:00:22;;;;;;;23.92;6.95;;;;;;;11.17;73.69;101043.09;5072169;28;20036;-73
2022/01/03 10:02:49;;;;;;;15.02;4.68;;;;;;;11.65;72.89;101051.28;5066929;28;20031;-72
2022/01/03 10:05:14;;;;;;;19.80;4.72;;;;;;;11.97;70.66;101039.50;5059958;28;20131;-72
2022/01/03 10:07:43;;;;;;;25.85;5.63;;;;;;;12.89;69.80;101036.28;5049199;28;20136;-74
2022/01/03 10:10:10;;;;;;;17.25;4.72;;;;;;;13.34;66.38;101044.16;5078144;28;20024;-72
2022/01/03 10:12:36;;;;;;;16.92;4.13;;;;;;;13.08;65.07;101048.16;5063630;28;20096;-73
2022/01/03 10:15:05;;;;;;;22.15;5.10;;;;;;;12.65;67.28;101044.53;5070330;28;20093;-73
2022/01/03 10:17:38;;;;;;;25.88;5.03;;;;;;;12.27;68.98;101040.78;5071889;28;20038;-72
2022/01/03 10:20:06;;;;;;;23.75;4.53;;;;;;;11.89;69.24;101036.06;5079228;28;20036;-72
2022/01/03 10:22:36;;;;;;;26.52;4.88;;;;;;;11.72;69.99;101038.91;5073243;28;20027;-72
2022/01/03 10:25:10;;;;;;;25.50;5.70;;;;;;;11.78;71.33;101038.88;5070879;28;20028;-72
2022/01/03 10:27:54;;;;;;;17.30;4.68;;;;;;;11.99;70.50;101039.47;5076999;28;20059;-72
2022/01/03 10:30:30;;;;;;;25.30;4.68;;;;;;;11.93;69.81;101043.91;5061269;28;20041;-72
2022/01/03 10:32:56;;;;;;;21.17;5.30;;;;;;;11.84;69.44;101045.75;5068929;28;20039;-72
2022/01/03 10:35:21;;;;;;;18.25;4.05;;;;;;;11.65;70.12;101048.66;5068906;28;20029;-69
2022/01/03 10:37:48;;;;;;;20.10;4.90;;;;;;;11.54;70.54;101040.91;5051391;28;20035;-71
2022/01/03 10:40:25;;;;;;;22.73;4.50;;;;;;;11.39;70.80;101030.59;5036172;28;20034;-71
2022/01/03 10:42:51;;;;;;;28.35;5.47;;;;;;;11.17;70.97;101037.84;5061382;28;20037;-71
2022/01/03 10:45:30;;;;;;;19.25;3.90;;;;;;;11.08;72.31;101036.19;5053396;28;20032;-73
2022/01/03 10:47:56;;;;;;;22.92;5.15;;;;;;;10.96;71.89;101036.31;5069670;28;20413;-71
2022/01/03 10:50:22;;;;;;;15.98;4.03;;;;;;;10.81;72.59;101026.88;5043115;28;20032;-72
2022/01/03 10:52:48;;;;;;;16.42;3.83;;;;;;;10.70;72.72;101017.34;5061683;28;20037;-72
2022/01/03 10:55:16;;;;;;;18.27;4.90;;;;;;;10.68;73.05;101016.47;5041364;28;20531;-71
2022/01/03 10:57:45;;;;;;;16.40;5.03;;;;;;;10.56;72.97;101014.84;5062505;28;20402;-71
2022/01/03 11:00:16;;;;;;;23.60;5.45;;;;;;;10.48;73.30;101007.94;5065997;28;20025;-72
2022/01/03 11:03:20;;;;;;;17.08;3.40;;;;;;;10.47;74.09;101008.81;5065195;28;20032;-70
2022/01/03 11:05:55;;;;;;;14.15;4.80;;;;;;;10.42;73.68;101001.00;5069198;28;20058;-70
2022/01/03 11:11:34;;;;;;;18.27;4.50;;;;;;;10.36;74.01;100985.34;5042315;28;20494;-72
2022/01/03 11:13:59;;;;;;;22.75;4.63;;;;;;;10.28;73.85;100989.75;5067103;28;20019;-72
2022/01/03 11:16:32;;;;;;;18.35;4.45;;;;;;;10.23;74.43;100997.66;5068754;28;20036;-72
2022/01/03 11:18:57;;;;;;;15.40;4.50;;;;;;;10.19;74.42;100985.44;5061797;28;20024;-72
2022/01/03 11:21:23;;;;;;;20.45;5.30;;;;;;;10.19;74.65;100981.06;5062753;28;20397;-72
2022/01/03 11:24:09;;;;;;;12.07;4.30;;;;;;;10.22;74.75;100991.50;5050444;28;20027;-72
2022/01/03 11:26:41;;;;;;;9.77;3.65;;;;;;;10.20;74.87;100988.06;5067110;28;20020;-72
2022/01/03 11:29:07;;;;;;;11.43;3.47;;;;;;;10.19;74.98;100983.69;5058824;28;20111;-72
2022/01/03 11:31:38;;;;;;;22.40;5.05;;;;;;;10.18;75.43;100984.56;5068346;28;20029;-72
2022/01/03 11:34:04;;;;;;;14.63;4.28;;;;;;;10.19;74.90;100980.22;5056462;28;20029;-71
2022/01/03 11:36:30;;;;;;;20.45;5.07;;;;;;;10.24;75.17;100986.25;5039870;28;20404;-72
2022/01/03 11:39:00;;;;;;;20.90;5.03;;;;;;;10.31;75.11;100976.63;5039425;28;20959;-72
2022/01/03 11:41:27;;;;;;;19.33;4.95;;;;;;;10.33;75.16;100973.09;5052528;28;20051;-72
2022/01/03 11:43:53;;;;;;;25.02;5.00;;;;;;;10.30;74.12;100974.88;5048177;28;20465;-73